Time;durP1;ratioP1;P1;durP2;ratioP2;P2;SDS_P1;SDS_P2;PMS_P1;PMS_P2;Temp;Humidity;BMP_temperature;BMP_pressure;BME280_temperature;BME280_humidity;BME280_pressure;Samples;Min_cycle;Max_cycle;Signal;HPM_P1;HPM_P2
2021/08/05 00:00:27;;;;;;;1.25;1.13;;;17.30;48.10;;;;;;4144826;28;20652;-41
2021/08/05 00:02:29;;;;;;;0.85;0.85;;;17.30;47.70;;;;;;4141925;28;20577;-45
2021/08/05 00:04:31;;;;;;;2.05;1.08;;;17.30;47.40;;;;;;4144985;28;20100;-41
2021/08/05 00:06:34;;;;;;;6.88;1.48;;;17.30;48.90;;;;;;4146223;28;20045;-44
2021/08/05 00:08:36;;;;;;;2.73;1.30;;;17.30;49.20;;;;;;4146125;28;20550;-48
2021/08/05 00:10:38;;;;;;;3.30;1.00;;;17.30;49.00;;;;;;4147988;28;20037;-45
2021/08/05 00:12:41;;;;;;;1.15;1.05;;;17.30;49.20;;;;;;4142078;28;20060;-43
2021/08/05 00:14:43;;;;;;;2.65;1.08;;;17.30;49.10;;;;;;4146025;28;20820;-47
2021/08/05 00:16:49;;;;;;;11.38;1.42;;;17.30;49.20;;;;;;4146067;28;20311;-43
2021/08/05 00:18:52;;;;;;;2.63;1.02;;;17.30;49.30;;;;;;4145412;28;20052;-45
2021/08/05 00:20:54;;;;;;;1.38;0.90;;;17.30;49.50;;;;;;4159221;28;20058;-46
2021/08/05 00:22:56;;;;;;;5.28;1.58;;;17.30;49.40;;;;;;4144659;28;20071;-49
2021/08/05 00:24:59;;;;;;;5.38;1.42;;;17.30;49.50;;;;;;4145316;28;20387;-46
2021/08/05 00:27:01;;;;;;;7.47;1.48;;;17.30;49.30;;;;;;4145458;28;20522;-45
2021/08/05 00:29:03;;;;;;;7.10;1.10;;;17.30;49.70;;;;;;4146334;28;20082;-44
2021/08/05 00:31:06;;;;;;;1.77;1.10;;;17.20;48.70;;;;;;4147689;28;20500;-46
2021/08/05 00:33:08;;;;;;;1.60;1.15;;;17.30;49.30;;;;;;4144005;28;20724;-45
2021/08/05 00:35:10;;;;;;;3.75;1.20;;;17.20;49.40;;;;;;4147492;28;21046;-41
2021/08/05 00:37:13;;;;;;;3.53;1.30;;;17.20;49.20;;;;;;4153310;28;20040;-51
2021/08/05 00:39:15;;;;;;;5.75;1.10;;;17.30;50.10;;;;;;4154832;28;20294;-46
2021/08/05 00:41:17;;;;;;;2.50;0.98;;;17.30;50.20;;;;;;4154781;28;20123;-45
2021/08/05 00:43:20;;;;;;;9.75;1.38;;;17.60;50.00;;;;;;4150387;28;20037;-44
2021/08/05 00:45:22;;;;;;;4.63;0.98;;;18.20;49.00;;;;;;4155431;28;20036;-44
2021/08/05 00:47:28;;;;;;;1.88;0.90;;;18.80;48.60;;;;;;4150615;28;20045;-45
2021/08/05 00:49:30;;;;;;;2.30;1.00;;;19.30;46.80;;;;;;4149340;28;20690;-46
2021/08/05 00:51:32;;;;;;;1.48;0.90;;;19.80;45.90;;;;;;4145832;28;20075;-49
2021/08/05 00:53:34;;;;;;;2.05;0.90;;;20.20;45.00;;;;;;4148021;28;20052;-44
2021/08/05 00:55:36;;;;;;;4.18;1.00;;;20.60;44.60;;;;;;4146282;28;20397;-44
2021/08/05 00:57:38;;;;;;;2.50;0.88;;;21.00;44.20;;;;;;4148102;28;20059;-48
2021/08/05 00:59:40;;;;;;;1.67;0.88;;;21.40;43.70;;;;;;4145648;28;20120;-45
2021/08/05 01:01:53;;;;;;;1.25;0.70;;;21.80;43.20;;;;;;4145926;28;20107;-48
2021/08/05 01:03:57;;;;;;;1.05;0.82;;;22.10;42.70;;;;;;4145527;28;20120;-47
2021/08/05 01:06:16;;;;;;;1.58;0.70;;;22.50;42.30;;;;;;4148013;28;20036;-45
2021/08/05 01:08:25;;;;;;;1.42;0.85;;;22.80;41.80;;;;;;4144941;28;20063;-44
2021/08/05 01:10:50;;;;;;;1.48;0.55;;;23.10;41.40;;;;;;4147881;28;20081;-44
2021/08/05 01:13:23;;;;;;;2.67;0.75;;;23.40;41.00;;;;;;4147635;28;20594;-47
2021/08/05 01:15:27;;;;;;;1.77;0.60;;;23.80;40.60;;;;;;4146140;28;20152;-45
2021/08/05 01:17:33;;;;;;;0.80;0.52;;;24.00;40.30;;;;;;4146909;28;20028;-46
2021/08/05 01:19:52;;;;;;;2.17;0.60;;;23.90;40.10;;;;;;4147053;28;20611;-47
2021/08/05 01:22:12;;;;;;;2.50;0.80;;;23.60;40.20;;;;;;4147284;28;20523;-47
2021/08/05 01:24:17;;;;;;;1.30;0.75;;;23.30;40.70;;;;;;4142690;28;20159;-49
2021/08/05 01:26:30;;;;;;;1.40;0.60;;;23.00;41.10;;;;;;4145501;28;20035;-46
2021/08/05 01:28:38;;;;;;;1.75;0.77;;;22.80;41.50;;;;;;4145873;28;20974;-43
2021/08/05 01:30:45;;;;;;;1.83;0.70;;;22.50;42.00;;;;;;4145952;28;20025;-44
2021/08/05 01:32:48;;;;;;;3.40;1.02;;;22.30;42.40;;;;;;4146648;28;20049;-47
2021/08/05 01:34:50;;;;;;;2.67;0.88;;;22.10;42.70;;;;;;4149100;28;20040;-44
2021/08/05 01:36:52;;;;;;;3.67;0.80;;;21.90;43.00;;;;;;4138465;28;20082;-43
2021/08/05 01:38:56;;;;;;;5.13;1.13;;;21.80;43.30;;;;;;4143056;28;20029;-45
2021/08/05 01:41:00;;;;;;;5.20;1.15;;;21.70;43.70;;;;;;4145472;28;20033;-45
2021/08/05 01:43:01;;;;;;;;;;;21.50;43.70;;;;;;4148740;28;20052;-47
2021/08/05 01:45:05;;;;;;;2.75;0.90;;;21.40;43.90;;;;;;4144798;28;19970;-47
2021/08/05 01:47:08;;;;;;;2.72;0.70;;;21.30;44.10;;;;;;4148009;28;20557;-45
2021/08/05 01:49:11;;;;;;;2.45;1.05;;;21.30;44.50;;;;;;4145389;28;20569;-48
2021/08/05 01:51:14;;;;;;;1.83;1.13;;;21.10;44.30;;;;;;4146569;28;20045;-46
2021/08/05 01:53:17;;;;;;;3.05;1.25;;;21.10;44.60;;;;;;4141878;28;20317;-44
2021/08/05 01:55:19;;;;;;;1.50;0.85;;;21.00;44.80;;;;;;4147732;28;20037;-43
2021/08/05 01:57:21;;;;;;;2.15;1.00;;;20.90;44.80;;;;;;4145641;28;20107;-45
2021/08/05 01:59:23;;;;;;;2.10;1.05;;;20.90;45.10;;;;;;4148134;28;20285;-42
2021/08/05 02:01:26;;;;;;;1.73;0.70;;;20.80;43.80;;;;;;4144268;28;20143;-43
2021/08/05 02:03:28;;;;;;;2.00;0.80;;;20.70;41.60;;;;;;4146467;28;20441;-44
2021/08/05 02:06:24;;;;;;;3.67;1.00;;;20.50;42.10;;;;;;4143645;28;20498;-43
2021/08/05 02:08:54;;;;;;;1.65;0.88;;;20.50;42.10;;;;;;4132477;28;20045;-45
2021/08/05 02:10:58;;;;;;;2.03;1.10;;;20.40;41.90;;;;;;4118695;28;20907;-42
2021/08/05 02:13:32;;;;;;;1.73;1.10;;;20.40;42.10;;;;;;4147475;28;20045;-45
2021/08/05 02:15:37;;;;;;;1.30;0.80;;;20.30;42.00;;;;;;4145136;28;20103;-47
2021/08/05 02:17:42;;;;;;;1.17;1.00;;;20.30;42.20;;;;;;4145896;28;21012;-41
2021/08/05 02:19:46;;;;;;;0.60;0.60;;;20.20;41.80;;;;;;4146563;28;20052;-42
2021/08/05 02:21:50;;;;;;;1.38;0.80;;;20.20;41.60;;;;;;4146505;28;20063;-46
2021/08/05 02:23:53;;;;;;;;;;;20.10;41.50;;;;;;4148417;28;20044;-43
2021/08/05 02:25:56;;;;;;;0.80;0.57;;;20.10;41.20;;;;;;4150087;28;19967;-45
2021/08/05 02:27:58;;;;;;;1.17;0.60;;;20.00;41.50;;;;;;4149369;28;20095;-44
2021/08/05 02:30:01;;;;;;;1.23;0.67;;;20.00;41.50;;;;;;4149875;28;20037;-44
2021/08/05 02:32:04;;;;;;;0.98;0.70;;;19.90;41.20;;;;;;4146922;28;20403;-45
2021/08/05 02:34:08;;;;;;;1.33;1.23;;;19.90;41.80;;;;;;4150913;28;20147;-43
2021/08/05 02:36:10;;;;;;;0.77;0.70;;;19.90;42.10;;;;;;4150281;28;20587;-43
2021/08/05 02:38:13;;;;;;;1.43;0.80;;;19.80;42.70;;;;;;4148500;28;20027;-43
2021/08/05 02:40:16;;;;;;;2.67;0.95;;;19.80;42.40;;;;;;4150838;28;20045;-43
2021/08/05 02:42:19;;;;;;;1.45;0.85;;;19.80;42.50;;;;;;4148951;28;20048;-49
2021/08/05 02:44:22;;;;;;;1.35;0.88;;;19.70;42.30;;;;;;4149538;28;20029;-45
2021/08/05 02:46:26;;;;;;;0.93;0.90;;;19.80;42.60;;;;;;4147859;28;20041;-46
2021/08/05 02:48:29;;;;;;;2.25;0.82;;;19.70;42.40;;;;;;4149030;28;20374;-46
2021/08/05 02:50:33;;;;;;;1.52;1.10;;;19.80;42.40;;;;;;4150736;28;20025;-45
2021/08/05 02:52:35;;;;;;;1.10;0.93;;;19.70;42.70;;;;;;4146876;28;20509;-44
2021/08/05 02:54:38;;;;;;;4.28;1.20;;;19.70;42.60;;;;;;4150918;28;20517;-46
2021/08/05 02:56:41;;;;;;;1.30;1.05;;;19.70;42.60;;;;;;4148147;28;20029;-43
2021/08/05 02:58:43;;;;;;;1.35;0.90;;;19.60;42.40;;;;;;4150789;28;20907;-45
2021/08/05 03:00:46;;;;;;;1.20;1.10;;;19.60;43.60;;;;;;4142121;28;20037;-45
2021/08/05 03:02:49;;;;;;;0.90;0.75;;;19.60;42.20;;;;;;4146296;28;21139;-44
2021/08/05 03:04:50;;;;;;;;;;;19.60;42.70;;;;;;4148190;28;20040;-45
2021/08/05 03:06:52;;;;;;;6.80;1.25;;;19.60;42.60;;;;;;4146360;28;19924;-47
2021/08/05 03:08:55;;;;;;;1.38;1.00;;;19.60;42.50;;;;;;4147327;28;20424;-43
2021/08/05 03:10:57;;;;;;;3.25;0.80;;;19.60;42.20;;;;;;4150727;28;20043;-48
2021/08/05 03:12:59;;;;;;;1.48;0.82;;;19.60;42.10;;;;;;4146764;28;20274;-46
2021/08/05 03:15:02;;;;;;;2.10;1.00;;;19.50;41.90;;;;;;4149985;28;20577;-45
2021/08/05 03:17:04;;;;;;;0.95;0.70;;;19.50;41.90;;;;;;4147786;28;20029;-43
2021/08/05 03:19:06;;;;;;;1.02;0.95;;;19.50;42.10;;;;;;4147859;28;20056;-45
2021/08/05 03:21:09;;;;;;;1.95;1.00;;;19.50;42.00;;;;;;4143579;28;20493;-43
2021/08/05 03:23:11;;;;;;;3.60;0.90;;;19.50;42.60;;;;;;4141592;28;20040;-43
2021/08/05 03:25:13;;;;;;;3.05;0.73;;;19.50;43.10;;;;;;4142169;28;20662;-42
2021/08/05 03:27:15;;;;;;;1.95;0.70;;;19.50;43.50;;;;;;4139032;28;20664;-45
2021/08/05 03:29:18;;;;;;;1.65;0.98;;;19.50;43.40;;;;;;4146564;28;20494;-45
2021/08/05 03:31:20;;;;;;;1.42;0.90;;;19.60;43.70;;;;;;4150368;28;20040;-45
2021/08/05 03:33:22;;;;;;;1.88;0.80;;;19.60;43.10;;;;;;4146633;28;20043;-46
2021/08/05 03:35:24;;;;;;;1.73;0.95;;;19.60;43.30;;;;;;4148812;28;20041;-48
2021/08/05 03:37:26;;;;;;;1.77;1.20;;;19.70;43.70;;;;;;4148677;28;20119;-46
2021/08/05 03:39:28;;;;;;;1.20;1.00;;;19.70;43.00;;;;;;4150112;28;20041;-44
2021/08/05 03:41:31;;;;;;;1.23;1.00;;;19.70;43.30;;;;;;4145963;28;20126;-45
2021/08/05 03:43:33;;;;;;;1.15;1.05;;;19.70;43.60;;;;;;4149919;28;20036;-45
2021/08/05 03:45:36;;;;;;;1.27;1.13;;;19.80;43.40;;;;;;4147404;28;20658;-46
2021/08/05 03:47:38;;;;;;;2.33;1.20;;;19.80;42.90;;;;;;4149378;28;20105;-44
2021/08/05 03:49:40;;;;;;;1.65;1.23;;;19.80;42.70;;;;;;4150401;28;20072;-49
2021/08/05 03:51:42;;;;;;;2.63;1.35;;;19.80;43.20;;;;;;4151647;28;20375;-48
2021/08/05 03:53:44;;;;;;;2.03;1.40;;;19.90;42.90;;;;;;4148329;28;20138;-46
2021/08/05 03:55:46;;;;;;;2.50;1.60;;;19.80;42.90;;;;;;4151163;28;20037;-44
2021/08/05 03:57:48;;;;;;;3.08;1.83;;;19.90;43.00;;;;;;4150760;28;20025;-49
2021/08/05 03:59:51;;;;;;;1.60;1.50;;;19.90;43.00;;;;;;4153761;28;20057;-47
2021/08/05 04:01:53;;;;;;;3.95;2.10;;;19.90;42.30;;;;;;4141271;28;20532;-48
2021/08/05 04:03:55;;;;;;;2.42;1.50;;;19.90;42.90;;;;;;4144793;28;20037;-41
2021/08/05 04:05:57;;;;;;;1.55;1.15;;;20.00;42.80;;;;;;4145022;28;20048;-41
2021/08/05 04:08:00;;;;;;;1.52;1.00;;;20.00;41.90;;;;;;4148385;28;20087;-43
2021/08/05 04:10:04;;;;;;;1.85;1.10;;;20.00;42.00;;;;;;4147858;28;20110;-46
2021/08/05 04:12:06;;;;;;;2.15;1.27;;;20.10;41.70;;;;;;4148681;28;20118;-43
2021/08/05 04:14:08;;;;;;;1.88;1.40;;;20.10;41.60;;;;;;4147213;28;20448;-44
2021/08/05 04:16:10;;;;;;;3.03;2.40;;;20.20;41.80;;;;;;4143842;28;20048;-44
2021/08/05 04:18:12;;;;;;;2.78;2.20;;;20.20;42.30;;;;;;4146932;28;20086;-46
2021/08/05 04:20:17;;;;;;;3.97;2.35;;;20.20;42.40;;;;;;4147456;28;20037;-45
2021/08/05 04:22:19;;;;;;;3.45;1.88;;;20.20;42.70;;;;;;4146516;28;20097;-42
2021/08/05 04:24:21;;;;;;;2.53;1.52;;;20.20;42.10;;;;;;4149552;28;20025;-42
2021/08/05 04:26:23;;;;;;;4.55;1.70;;;20.20;42.10;;;;;;4146067;28;20134;-44
2021/08/05 04:28:25;;;;;;;2.38;1.48;;;20.20;41.10;;;;;;4145929;28;20037;-42
2021/08/05 04:30:30;;;;;;;1.55;1.23;;;20.30;41.00;;;;;;4146004;28;20132;-47
2021/08/05 04:32:32;;;;;;;2.25;1.10;;;20.30;40.60;;;;;;4146616;28;20037;-45
2021/08/05 04:34:34;;;;;;;1.65;1.08;;;20.30;40.90;;;;;;4146563;28;20029;-45
2021/08/05 04:36:36;;;;;;;2.65;1.10;;;20.30;40.50;;;;;;4147484;28;20542;-42
2021/08/05 04:38:38;;;;;;;1.20;0.90;;;20.40;40.80;;;;;;4147725;28;20035;-42
2021/08/05 04:40:41;;;;;;;1.98;1.13;;;20.40;40.50;;;;;;4143429;28;20415;-43
2021/08/05 04:42:44;;;;;;;2.03;1.20;;;20.50;40.80;;;;;;4148397;28;20454;-44
2021/08/05 04:44:46;;;;;;;0.95;0.75;;;20.50;40.60;;;;;;4147513;28;20039;-42
2021/08/05 04:46:48;;;;;;;1.33;0.90;;;20.50;40.20;;;;;;4142883;28;20033;-43
2021/08/05 04:48:50;;;;;;;1.55;0.90;;;20.50;40.10;;;;;;4146359;28;20670;-42
2021/08/05 04:50:52;;;;;;;1.08;0.80;;;20.50;40.20;;;;;;4144096;28;20111;-47
2021/08/05 04:52:55;;;;;;;1.48;0.88;;;20.60;40.00;;;;;;4143396;28;20853;-44
2021/08/05 04:54:57;;;;;;;0.77;0.73;;;20.60;39.80;;;;;;4146425;28;20044;-47
2021/08/05 04:56:59;;;;;;;0.70;0.50;;;20.60;39.80;;;;;;4146297;28;20063;-49
2021/08/05 04:59:01;;;;;;;1.05;0.70;;;20.70;39.80;;;;;;4148458;28;20071;-44
2021/08/05 05:01:04;;;;;;;0.65;0.50;;;20.70;39.60;;;;;;4146185;28;20652;-43
2021/08/05 05:03:07;;;;;;;1.35;0.82;;;20.70;39.90;;;;;;4145322;28;20128;-44
2021/08/05 05:05:09;;;;;;;1.20;0.80;;;20.70;39.70;;;;;;4146625;28;20111;-42
2021/08/05 05:07:11;;;;;;;1.63;0.65;;;20.70;39.90;;;;;;4144619;28;20049;-45
2021/08/05 05:09:13;;;;;;;1.08;0.63;;;20.70;39.90;;;;;;4144641;28;20040;-43
2021/08/05 05:11:15;;;;;;;0.55;0.55;;;20.70;40.30;;;;;;4147551;28;20595;-43
2021/08/05 05:13:19;;;;;;;0.65;0.65;;;20.80;40.50;;;;;;4147707;28;20033;-42
2021/08/05 05:15:21;;;;;;;0.50;0.50;;;20.80;40.60;;;;;;4148482;28;20029;-46
2021/08/05 05:17:23;;;;;;;2.28;0.80;;;20.90;40.70;;;;;;4145681;28;20819;-45
2021/08/05 05:19:25;;;;;;;1.63;0.70;;;20.90;40.90;;;;;;4148641;28;20052;-47
2021/08/05 05:21:27;;;;;;;0.70;0.70;;;20.90;40.80;;;;;;4145369;28;20303;-43
2021/08/05 05:23:31;;;;;;;1.40;0.88;;;20.90;40.80;;;;;;4147511;28;20449;-43
2021/08/05 05:25:33;;;;;;;1.00;0.75;;;20.90;40.80;;;;;;4145627;28;20108;-47
2021/08/05 05:27:35;;;;;;;0.63;0.57;;;20.90;40.50;;;;;;4146520;28;20041;-46
2021/08/05 05:29:38;;;;;;;1.05;0.77;;;20.90;40.30;;;;;;4145180;28;20079;-43
2021/08/05 05:31:40;;;;;;;0.77;0.70;;;21.00;40.50;;;;;;4144663;28;20025;-47
2021/08/05 05:33:42;;;;;;;1.67;0.80;;;21.00;40.40;;;;;;4143638;28;20052;-44
2021/08/05 05:35:44;;;;;;;0.68;0.68;;;21.00;40.40;;;;;;4146276;28;20041;-42
2021/08/05 05:37:49;;;;;;;0.65;0.65;;;21.00;40.40;;;;;;4144178;28;20497;-43
2021/08/05 05:39:53;;;;;;;0.70;0.70;;;21.00;40.30;;;;;;4146129;28;20040;-46
2021/08/05 05:41:55;;;;;;;0.52;0.52;;;20.90;40.10;;;;;;4145691;28;20109;-43
2021/08/05 05:43:57;;;;;;;0.75;0.70;;;20.90;40.40;;;;;;4147991;28;20171;-43
2021/08/05 05:45:59;;;;;;;0.73;0.73;;;20.90;40.40;;;;;;4146745;28;20912;-43
2021/08/05 05:48:02;;;;;;;0.85;0.85;;;20.90;40.80;;;;;;4147345;28;20033;-45
2021/08/05 05:50:06;;;;;;;2.25;0.85;;;20.90;41.10;;;;;;4149333;28;20037;-40
2021/08/05 05:52:08;;;;;;;1.50;0.75;;;20.90;40.60;;;;;;4147031;28;20048;-46
2021/08/05 05:54:11;;;;;;;0.73;0.70;;;20.80;40.70;;;;;;4154637;28;20033;-43
2021/08/05 05:56:14;;;;;;;1.42;0.70;;;20.80;40.70;;;;;;4154942;28;20052;-42
2021/08/05 05:58:16;;;;;;;1.23;0.90;;;20.80;40.50;;;;;;4156179;28;20033;-43
2021/08/05 06:00:18;;;;;;;2.58;1.00;;;20.80;40.70;;;;;;4155233;28;20029;-43
2021/08/05 06:02:21;;;;;;;2.17;0.85;;;20.70;41.10;;;;;;4152520;28;20052;-42
2021/08/05 06:04:23;;;;;;;0.70;0.70;;;20.80;41.00;;;;;;4154399;28;20427;-43
2021/08/05 06:06:25;;;;;;;1.42;0.80;;;20.80;40.70;;;;;;4151691;28;20591;-43
2021/08/05 06:08:27;;;;;;;1.65;1.00;;;20.70;41.00;;;;;;4147256;28;20028;-43
2021/08/05 06:10:29;;;;;;;0.63;0.63;;;20.70;40.80;;;;;;4145972;28;20116;-44
2021/08/05 06:12:31;;;;;;;0.70;0.70;;;20.70;40.80;;;;;;4146050;28;20251;-43
2021/08/05 06:14:33;;;;;;;1.35;1.00;;;20.70;40.70;;;;;;4146324;28;20116;-45
2021/08/05 06:16:35;;;;;;;0.70;0.70;;;20.70;40.70;;;;;;4143475;28;20699;-44
2021/08/05 06:18:37;;;;;;;1.23;0.73;;;20.60;40.60;;;;;;4146224;28;20603;-45
2021/08/05 06:20:39;;;;;;;3.00;0.80;;;20.60;40.80;;;;;;4144952;28;20266;-47
2021/08/05 06:22:42;;;;;;;0.88;0.70;;;20.60;41.00;;;;;;4146535;28;20060;-42
2021/08/05 06:24:44;;;;;;;1.40;0.60;;;20.60;40.90;;;;;;4146793;28;20119;-50
2021/08/05 06:26:48;;;;;;;0.68;0.68;;;20.50;40.90;;;;;;4148409;28;20532;-43
2021/08/05 06:28:50;;;;;;;0.80;0.65;;;20.50;41.00;;;;;;4144254;28;20025;-42
2021/08/05 06:30:53;;;;;;;0.40;0.40;;;20.40;40.90;;;;;;4148813;28;20037;-43
2021/08/05 06:32:55;;;;;;;0.88;0.70;;;20.40;41.00;;;;;;4144873;28;20028;-42
2021/08/05 06:34:57;;;;;;;0.60;0.60;;;20.40;41.10;;;;;;4147092;28;20033;-46
2021/08/05 06:36:59;;;;;;;0.50;0.50;;;20.40;41.20;;;;;;4147539;28;20090;-44
2021/08/05 06:39:02;;;;;;;0.60;0.60;;;20.40;41.30;;;;;;4145805;28;20373;-45
2021/08/05 06:41:05;;;;;;;1.08;0.60;;;20.40;41.40;;;;;;4145569;28;20059;-46
2021/08/05 06:43:07;;;;;;;0.77;0.60;;;20.40;41.40;;;;;;4148097;28;20037;-45
2021/08/05 06:45:11;;;;;;;0.70;0.65;;;20.40;41.40;;;;;;4146185;28;20326;-44
2021/08/05 06:47:13;;;;;;;1.30;0.80;;;20.30;41.50;;;;;;4144038;28;20039;-42
2021/08/05 06:49:15;;;;;;;1.58;0.88;;;20.30;41.60;;;;;;4144629;28;20029;-46
2021/08/05 06:51:17;;;;;;;1.85;0.80;;;20.30;41.60;;;;;;4147465;28;20056;-43
2021/08/05 06:53:20;;;;;;;0.45;0.45;;;20.30;41.50;;;;;;4147231;28;20075;-42
2021/08/05 06:55:22;;;;;;;0.80;0.80;;;20.30;41.50;;;;;;4147278;28;20568;-46
2021/08/05 06:57:25;;;;;;;0.80;0.70;;;20.30;41.40;;;;;;4148442;28;20048;-42
2021/08/05 06:59:27;;;;;;;0.73;0.70;;;20.70;40.70;;;;;;4148010;28;20054;-45
2021/08/05 07:01:29;;;;;;;1.05;0.65;;;21.30;39.50;;;;;;4144980;28;20401;-45
2021/08/05 07:03:31;;;;;;;1.02;0.50;;;21.20;39.20;;;;;;4144787;28;20049;-47
2021/08/05 07:05:33;;;;;;;1.77;1.13;;;20.90;39.90;;;;;;4143439;28;20036;-46
2021/08/05 07:07:35;;;;;;;0.63;0.63;;;20.70;40.70;;;;;;4146227;28;20427;-43
2021/08/05 07:09:37;;;;;;;0.85;0.80;;;20.50;40.90;;;;;;4145379;28;20032;-45
2021/08/05 07:11:40;;;;;;;1.05;0.80;;;20.30;41.50;;;;;;4147887;28;20037;-44
2021/08/05 07:13:42;;;;;;;0.85;0.70;;;20.20;42.20;;;;;;4146612;28;20037;-42
2021/08/05 07:15:44;;;;;;;2.10;0.82;;;20.10;42.10;;;;;;4147364;28;20159;-45
2021/08/05 07:17:46;;;;;;;1.27;0.90;;;20.10;42.30;;;;;;4148051;28;20354;-47
2021/08/05 07:19:48;;;;;;;1.60;0.85;;;20.00;42.30;;;;;;4147585;28;20033;-45
2021/08/05 07:21:50;;;;;;;1.17;0.90;;;20.00;42.60;;;;;;4150046;28;20484;-45
2021/08/05 07:23:52;;;;;;;1.85;1.13;;;19.90;42.60;;;;;;4147182;28;20278;-46
2021/08/05 07:25:55;;;;;;;2.83;1.45;;;19.80;42.50;;;;;;4150328;28;20152;-47
2021/08/05 07:28:01;;;;;;;2.47;1.67;;;19.80;43.00;;;;;;4146492;28;20052;-44
2021/08/05 07:30:06;;;;;;;4.63;1.58;;;19.80;44.70;;;;;;4149460;28;20579;-43
2021/08/05 07:32:08;;;;;;;3.08;1.50;;;19.80;45.10;;;;;;4146004;28;20106;-44
2021/08/05 07:34:10;;;;;;;4.45;1.73;;;19.80;45.80;;;;;;4150762;28;20064;-46
2021/08/05 07:36:13;;;;;;;5.72;1.88;;;19.80;46.10;;;;;;4145508;28;20116;-45
2021/08/05 07:38:15;;;;;;;3.17;1.42;;;19.80;46.30;;;;;;4149764;28;20837;-46
2021/08/05 07:40:17;;;;;;;2.78;1.50;;;19.80;46.60;;;;;;4146366;28;20031;-43
2021/08/05 07:42:19;;;;;;;3.47;1.52;;;19.80;46.70;;;;;;4147857;28;20041;-43
2021/08/05 07:44:21;;;;;;;5.53;1.77;;;19.80;46.90;;;;;;4147182;28;20067;-47
2021/08/05 07:46:24;;;;;;;4.80;1.80;;;19.90;46.90;;;;;;4147133;28;20025;-43
2021/08/05 07:48:26;;;;;;;4.07;1.70;;;19.80;47.10;;;;;;4143705;28;20033;-48
2021/08/05 07:50:28;;;;;;;4.35;1.90;;;19.80;47.10;;;;;;4144601;28;20039;-45
2021/08/05 07:52:30;;;;;;;3.90;1.67;;;19.80;47.10;;;;;;4147132;28;20423;-45
2021/08/05 07:54:33;;;;;;;4.20;1.70;;;19.80;47.10;;;;;;4145537;28;21051;-41
2021/08/05 07:56:36;;;;;;;4.93;1.80;;;19.80;47.30;;;;;;4146372;28;20052;-42
2021/08/05 07:58:38;;;;;;;3.25;1.40;;;19.80;47.40;;;;;;4145604;28;20060;-43
2021/08/05 08:00:40;;;;;;;3.53;1.83;;;19.80;47.60;;;;;;4144100;28;20413;-41
2021/08/05 08:02:42;;;;;;;4.38;1.55;;;19.80;47.60;;;;;;4146775;28;20061;-45
2021/08/05 08:04:44;;;;;;;1.88;1.30;;;19.80;47.60;;;;;;4146064;28;20079;-42
2021/08/05 08:06:46;;;;;;;7.88;1.80;;;19.80;47.70;;;;;;4147330;28;20591;-41
2021/08/05 08:08:48;;;;;;;2.30;1.40;;;19.80;47.70;;;;;;4145773;28;20033;-42
2021/08/05 08:10:51;;;;;;;2.70;1.50;;;19.80;47.80;;;;;;4145981;28;20032;-43
2021/08/05 08:12:53;;;;;;;3.03;1.50;;;19.80;47.90;;;;;;4145463;28;20131;-45
2021/08/05 08:14:56;;;;;;;4.05;1.48;;;19.80;48.00;;;;;;4147280;28;20025;-43
2021/08/05 08:16:58;;;;;;;1.70;1.23;;;19.80;48.10;;;;;;4143351;28;20132;-45
2021/08/05 08:19:00;;;;;;;1.92;1.10;;;19.80;48.20;;;;;;4141434;28;20068;-43
2021/08/05 08:21:02;;;;;;;3.55;1.27;;;19.80;48.30;;;;;;4146255;28;20044;-43
2021/08/05 08:23:05;;;;;;;1.83;1.00;;;19.80;48.40;;;;;;4146116;28;20052;-45
2021/08/05 08:25:07;;;;;;;2.42;1.08;;;19.80;48.50;;;;;;4145929;28;20392;-46
2021/08/05 08:27:09;;;;;;;3.75;1.50;;;19.80;48.40;;;;;;4147101;28;20167;-43
2021/08/05 08:29:11;;;;;;;2.00;1.30;;;19.80;48.60;;;;;;4145751;28;20044;-47
2021/08/05 08:31:14;;;;;;;2.28;1.27;;;19.80;48.30;;;;;;4143897;28;20498;-43
2021/08/05 08:33:16;;;;;;;2.35;1.15;;;19.80;48.20;;;;;;4146953;28;20962;-47
2021/08/05 08:35:18;;;;;;;2.97;1.23;;;19.80;48.20;;;;;;4147150;28;20037;-43
2021/08/05 08:37:20;;;;;;;2.78;1.17;;;19.80;48.20;;;;;;4143905;28;20064;-43
2021/08/05 08:39:23;;;;;;;3.08;1.27;;;19.80;48.20;;;;;;4147451;28;20047;-42
2021/08/05 08:41:26;;;;;;;2.40;1.13;;;19.80;48.20;;;;;;4144079;28;20032;-44
2021/08/05 08:43:29;;;;;;;2.17;1.00;;;19.70;48.30;;;;;;4146484;28;20413;-44
2021/08/05 08:45:31;;;;;;;1.52;1.20;;;19.70;48.30;;;;;;4146690;28;20974;-46
2021/08/05 08:47:35;;;;;;;3.13;1.13;;;19.70;48.40;;;;;;4145583;28;20513;-42
2021/08/05 08:49:37;;;;;;;4.55;0.90;;;19.70;48.60;;;;;;4147571;28;20142;-46
2021/08/05 08:51:39;;;;;;;1.40;0.98;;;19.70;48.60;;;;;;4145990;28;20048;-42
2021/08/05 08:53:43;;;;;;;4.28;1.20;;;19.70;48.50;;;;;;4147570;28;20784;-43
2021/08/05 08:55:48;;;;;;;3.80;1.05;;;19.70;48.70;;;;;;4144672;28;20025;-43
2021/08/05 08:57:54;;;;;;;4.50;1.20;;;19.70;48.70;;;;;;4149310;28;20036;-46
2021/08/05 08:59:58;;;;;;;1.40;0.90;;;19.70;48.70;;;;;;4146401;28;20061;-47
2021/08/05 09:02:00;;;;;;;4.13;1.10;;;19.70;48.70;;;;;;4139795;28;20592;-42
2021/08/05 09:04:02;;;;;;;3.35;1.15;;;19.70;48.70;;;;;;4141098;28;20151;-44
2021/08/05 09:06:04;;;;;;;4.45;0.90;;;19.70;48.70;;;;;;4144531;28;20044;-45
2021/08/05 09:08:07;;;;;;;3.45;1.20;;;19.70;48.80;;;;;;4144212;28;20032;-42
2021/08/05 09:10:10;;;;;;;2.38;1.50;;;19.70;48.70;;;;;;4145734;28;20036;-46
2021/08/05 09:12:15;;;;;;;1.33;0.90;;;19.60;48.60;;;;;;4144202;28;20072;-43
2021/08/05 09:14:41;;;;;;;1.52;1.05;;;19.60;48.80;;;;;;4145960;28;20025;-43
2021/08/05 09:16:43;;;;;;;2.65;0.90;;;19.60;48.70;;;;;;4137285;28;20037;-42
2021/08/05 09:18:45;;;;;;;0.82;0.80;;;19.60;48.70;;;;;;4144251;28;20179;-41
2021/08/05 09:21:08;;;;;;;1.80;1.20;;;19.60;49.00;;;;;;4144854;28;20124;-43
2021/08/05 09:23:10;;;;;;;1.42;0.90;;;19.60;48.80;;;;;;4143800;28;20140;-42
2021/08/05 09:25:32;;;;;;;3.55;1.08;;;19.60;49.00;;;;;;4145147;28;20029;-43
2021/08/05 09:27:34;;;;;;;3.47;0.68;;;19.60;49.00;;;;;;4143971;28;20052;-41
2021/08/05 09:29:45;;;;;;;2.73;1.10;;;19.60;48.90;;;;;;4145164;28;20039;-43
2021/08/05 09:32:01;;;;;;;1.15;0.85;;;19.60;49.10;;;;;;4138432;28;20426;-42
2021/08/05 09:34:15;;;;;;;1.65;1.00;;;19.50;49.00;;;;;;4144938;28;20037;-43
2021/08/05 09:36:27;;;;;;;3.10;0.90;;;19.50;49.00;;;;;;4144885;28;20071;-44
2021/08/05 09:38:32;;;;;;;1.65;1.00;;;19.50;49.10;;;;;;4142976;28;20506;-46
2021/08/05 09:40:34;;;;;;;1.85;1.08;;;19.50;49.10;;;;;;4143993;28;20112;-43
2021/08/05 09:42:36;;;;;;;2.30;1.05;;;19.50;49.20;;;;;;4146756;28;20698;-45
2021/08/05 09:44:38;;;;;;;1.30;1.10;;;19.50;49.10;;;;;;4140331;28;20143;-46
2021/08/05 09:46:40;;;;;;;1.35;1.20;;;19.50;49.10;;;;;;4144718;28;20029;-44
2021/08/05 09:48:45;;;;;;;1.20;0.95;;;19.50;49.20;;;;;;4143068;28;20215;-48
2021/08/05 09:50:47;;;;;;;3.25;1.00;;;19.50;49.10;;;;;;4145539;28;20044;-43
2021/08/05 09:52:49;;;;;;;3.50;1.38;;;19.50;49.00;;;;;;4144287;28;20124;-44
2021/08/05 09:54:52;;;;;;;1.52;1.05;;;19.50;49.00;;;;;;4142406;28;20584;-42
2021/08/05 09:56:55;;;;;;;4.05;1.05;;;19.40;48.90;;;;;;4144342;28;20044;-43
2021/08/05 09:59:14;;;;;;;1.55;1.08;;;19.40;49.40;;;;;;4144085;28;20609;-44
2021/08/05 10:01:17;;;;;;;2.67;1.10;;;19.40;49.20;;;;;;4144113;28;20116;-43
2021/08/05 10:03:31;;;;;;;3.55;1.30;;;19.40;49.30;;;;;;4143815;28;20483;-42
2021/08/05 10:05:33;;;;;;;1.55;1.00;;;19.40;49.40;;;;;;4142623;28;20596;-45
2021/08/05 10:07:49;;;;;;;0.73;0.70;;;19.40;49.40;;;;;;4144361;28;20112;-44
2021/08/05 10:09:58;;;;;;;1.13;0.95;;;19.40;49.40;;;;;;4145609;28;20110;-41
2021/08/05 10:12:18;;;;;;;10.57;1.40;;;19.40;49.20;;;;;;4142113;28;20025;-44
2021/08/05 10:14:22;;;;;;;1.27;1.02;;;19.40;49.20;;;;;;4143078;28;20064;-41
2021/08/05 10:16:39;;;;;;;1.35;1.25;;;19.40;49.40;;;;;;4143412;28;20399;-41
2021/08/05 10:18:42;;;;;;;1.30;0.95;;;19.30;49.40;;;;;;4142323;28;20621;-44
2021/08/05 10:20:44;;;;;;;1.53;1.33;;;19.30;49.40;;;;;;4144691;28;20159;-42
2021/08/05 10:22:48;;;;;;;1.37;0.97;;;19.30;49.50;;;;;;4146498;28;20817;-48
2021/08/05 10:24:51;;;;;;;2.75;1.05;;;19.30;49.40;;;;;;4144378;28;20052;-42
2021/08/05 10:26:54;;;;;;;1.58;0.95;;;19.30;49.40;;;;;;4146618;28;20036;-42
2021/08/05 10:28:56;;;;;;;0.77;0.73;;;19.30;49.40;;;;;;4142337;28;20033;-43
2021/08/05 10:31:00;;;;;;;0.80;0.80;;;19.30;49.40;;;;;;4145021;28;20041;-41
2021/08/05 10:33:03;;;;;;;1.42;1.00;;;19.30;49.30;;;;;;4143855;28;20061;-41
2021/08/05 10:35:10;;;;;;;1.13;0.95;;;19.20;49.00;;;;;;4143222;28;20152;-41
2021/08/05 10:37:14;;;;;;;1.38;1.10;;;19.30;49.30;;;;;;4143776;28;21030;-46
2021/08/05 10:39:16;;;;;;;0.90;0.80;;;19.20;49.40;;;;;;4145775;28;20053;-44
2021/08/05 10:41:18;;;;;;;1.23;1.02;;;19.20;49.40;;;;;;4144532;28;20025;-44
2021/08/05 10:43:21;;;;;;;0.88;0.75;;;19.20;49.50;;;;;;4144739;28;20262;-45
2021/08/05 10:45:23;;;;;;;2.83;0.90;;;19.20;49.30;;;;;;4146238;28;20033;-45